createdAt,value
2023-04-05T00:01:34.126Z,99945.84
2023-04-05T00:04:00.728Z,99939.63
2023-04-05T00:06:31.618Z,99936.44
2023-04-05T00:09:07.076Z,99937.28
2023-04-05T00:11:34.430Z,99932.50
2023-04-05T00:14:01.704Z,99924.16
2023-04-05T00:16:29.324Z,99921.00
2023-04-05T00:18:57.297Z,99919.63
2023-04-05T00:21:24.676Z,99929.34
2023-04-05T00:23:53.336Z,99921.28
2023-04-05T00:26:20.615Z,99926.00
2023-04-05T00:28:47.670Z,99932.22
2023-04-05T00:31:14.356Z,99935.81
2023-04-05T00:33:40.996Z,99939.13
2023-04-05T00:36:14.626Z,99926.97
2023-04-05T00:38:42.050Z,99922.28
2023-04-05T00:41:08.867Z,99915.88
2023-04-05T00:43:35.365Z,99916.84
2023-04-05T00:46:02.528Z,99918.09
2023-04-05T00:48:29.288Z,99919.03
2023-04-05T00:50:55.880Z,99921.63
2023-04-05T00:53:22.389Z,99918.47
2023-04-05T00:55:49.430Z,99917.03
2023-04-05T00:58:19.211Z,99913.13
2023-04-05T01:00:59.310Z,99911.84
2023-04-05T01:03:31.034Z,99914.78
2023-04-05T01:06:23.731Z,99906.06
2023-04-05T01:09:12.818Z,99902.47
2023-04-05T01:11:40.607Z,99905.19
2023-04-05T01:14:07.072Z,99904.59
2023-04-05T01:16:33.832Z,99899.38
2023-04-05T01:19:00.744Z,99901.91
2023-04-05T01:21:39.220Z,99897.69
2023-04-05T01:24:25.088Z,99896.56
2023-04-05T01:27:00.809Z,99898.28
2023-04-05T01:29:44.392Z,99899.84
2023-04-05T01:32:29.541Z,99892.25
2023-04-05T01:35:18.612Z,99897.47
2023-04-05T01:37:49.938Z,99892.41
2023-04-05T01:40:16.674Z,99900.06
2023-04-05T01:42:44.774Z,99891.56
2023-04-05T01:45:11.206Z,99905.59
2023-04-05T01:47:37.781Z,99894.59
2023-04-05T01:50:04.479Z,99889.09
2023-04-05T01:52:30.948Z,99887.13
2023-04-05T01:54:57.409Z,99893.97
2023-04-05T01:57:23.875Z,99898.13
2023-04-05T01:59:50.428Z,99897.81
2023-04-05T02:02:16.872Z,99894.72
2023-04-05T02:04:43.411Z,99887.25
2023-04-05T02:07:09.894Z,99887.13
2023-04-05T02:09:36.367Z,99896.22
2023-04-05T02:12:02.786Z,99891.03
2023-04-05T02:14:29.244Z,99877.97
2023-04-05T02:16:55.767Z,99883.94
2023-04-05T02:19:23.420Z,99878.59
2023-04-05T02:21:52.319Z,99882.56
2023-04-05T02:24:19.745Z,99879.47
2023-04-05T02:26:46.279Z,99879.00
2023-04-05T02:29:12.699Z,99884.22
2023-04-05T02:31:39.168Z,99876.81
2023-04-05T02:34:09.148Z,99875.13
2023-04-05T02:36:35.623Z,99873.81
2023-04-05T02:39:02.040Z,99877.78
2023-04-05T02:41:28.493Z,99884.06
2023-04-05T02:43:54.882Z,99886.31
2023-04-05T02:46:21.417Z,99874.13
2023-04-05T02:48:47.997Z,99887.78
2023-04-05T02:51:14.440Z,99878.31
2023-04-05T02:53:40.822Z,99871.75
2023-04-05T02:56:07.845Z,99874.72
2023-04-05T02:58:34.248Z,99867.88
2023-04-05T03:01:01.669Z,99872.06
2023-04-05T03:03:29.224Z,99860.47
2023-04-05T03:06:01.403Z,99858.94
2023-04-05T03:08:28.719Z,99864.47
2023-04-05T03:10:55.365Z,99864.91
2023-04-05T03:13:21.807Z,99853.94
2023-04-05T03:15:48.233Z,99864.19
2023-04-05T03:18:14.655Z,99853.31
2023-04-05T03:20:41.482Z,99859.56
2023-04-05T03:23:08.959Z,99859.56
2023-04-05T03:25:36.644Z,99857.78
2023-04-05T03:28:06.210Z,99861.06
2023-04-05T03:30:33.360Z,99856.91
2023-04-05T03:33:03.789Z,99856.75
2023-04-05T03:35:30.836Z,99859.44
2023-04-05T03:37:57.388Z,99868.78
2023-04-05T03:40:24.420Z,99876.53
2023-04-05T03:42:51.143Z,99869.09
2023-04-05T03:45:23.109Z,99874.44
2023-04-05T03:47:50.397Z,99874.13
2023-04-05T03:50:16.915Z,99878.16
2023-04-05T03:52:43.429Z,99877.25
2023-04-05T03:55:10.067Z,99866.13
2023-04-05T03:57:38.129Z,99870.59
2023-04-05T04:00:14.481Z,99887.19
2023-04-05T04:02:46.232Z,99871.75
2023-04-05T04:05:13.296Z,99868.63
2023-04-05T04:07:41.660Z,99870.13
2023-04-05T04:10:09.274Z,99871.44
2023-04-05T04:12:35.828Z,99869.81
2023-04-05T04:15:02.464Z,99874.28
2023-04-05T04:17:33.921Z,99876.97
2023-04-05T04:20:00.697Z,99872.66
2023-04-05T04:22:33.165Z,99866.41
2023-04-05T04:25:04.306Z,99870.53
2023-04-05T04:27:31.442Z,99866.53
2023-04-05T04:30:03.975Z,99873.53
2023-04-05T04:32:49.124Z,99869.94
2023-04-05T04:35:18.663Z,99870.56
2023-04-05T04:37:53.240Z,99869.09
2023-04-05T04:40:19.719Z,99878.28
2023-04-05T04:42:46.638Z,99873.84
2023-04-05T04:45:16.801Z,99872.34
2023-04-05T04:47:48.105Z,99875.44
2023-04-05T04:50:16.104Z,99873.81
2023-04-05T04:52:42.684Z,99876.06
2023-04-05T04:55:09.825Z,99875.88
2023-04-05T04:57:36.470Z,99869.66
2023-04-05T05:00:08.044Z,99865.78
2023-04-05T05:02:34.727Z,99873.19
2023-04-05T05:05:01.203Z,99870.50
2023-04-05T05:07:27.648Z,99866.22
2023-04-05T05:09:54.454Z,99863.41
2023-04-05T05:12:21.607Z,99863.72
2023-04-05T05:14:48.009Z,99859.44
2023-04-05T05:17:14.450Z,99867.69
2023-04-05T05:19:41.210Z,99874.69
2023-04-05T05:22:07.779Z,99872.91
2023-04-05T05:24:34.372Z,99870.09
2023-04-05T05:27:01.084Z,99877.00
2023-04-05T05:29:27.592Z,99874.66
2023-04-05T05:31:54.315Z,99877.63
2023-04-05T05:34:20.990Z,99873.00
2023-04-05T05:36:47.578Z,99860.13
2023-04-05T05:39:14.061Z,99868.72
2023-04-05T05:41:40.561Z,99877.19
2023-04-05T05:44:07.064Z,99870.09
2023-04-05T05:46:33.589Z,99870.72
2023-04-05T05:49:00.056Z,99875.00
2023-04-05T05:51:26.585Z,99871.31
2023-04-05T05:53:54.253Z,99871.44
2023-04-05T05:56:20.979Z,99878.00
2023-04-05T05:58:47.983Z,99886.16
2023-04-05T06:01:15.679Z,99883.81
2023-04-05T06:03:42.274Z,99882.59
2023-04-05T06:06:11.046Z,99881.13
2023-04-05T06:08:38.072Z,99892.25
2023-04-05T06:11:04.584Z,99884.50
2023-04-05T06:13:31.116Z,99886.88
2023-04-05T06:15:57.640Z,99889.25
2023-04-05T06:18:24.098Z,99878.53
2023-04-05T06:20:50.533Z,99884.16
2023-04-05T06:23:17.025Z,99880.84
2023-04-05T06:25:43.555Z,99875.59
2023-04-05T06:28:09.968Z,99877.81
2023-04-05T06:30:37.443Z,99875.84
2023-04-05T06:33:03.949Z,99880.31
2023-04-05T06:35:30.597Z,99878.16
2023-04-05T06:37:57.164Z,99876.91
2023-04-05T06:40:23.550Z,99875.06
2023-04-05T06:42:49.992Z,99875.94
2023-04-05T06:45:16.494Z,99878.41
2023-04-05T06:47:43.064Z,99881.25
2023-04-05T06:50:10.184Z,99879.25
2023-04-05T06:52:36.665Z,99878.75
2023-04-05T06:55:03.367Z,99879.50
2023-04-05T06:57:29.817Z,99881.13
2023-04-05T06:59:56.391Z,99879.13
2023-04-05T07:02:22.975Z,99873.69
2023-04-05T07:04:49.429Z,99873.47
2023-04-05T07:07:17.019Z,99868.28
2023-04-05T07:09:43.433Z,99863.53
2023-04-05T07:12:10.307Z,99866.41
2023-04-05T07:14:37.745Z,99867.81
2023-04-05T07:17:06.187Z,99859.66
2023-04-05T07:19:33.289Z,99855.94
2023-04-05T07:22:00.128Z,99853.47
2023-04-05T07:24:26.546Z,99854.75
2023-04-05T07:26:53.214Z,99850.41
2023-04-05T07:29:19.698Z,99839.66
2023-04-05T07:31:46.338Z,99847.31
2023-04-05T07:34:13.285Z,99854.59
2023-04-05T07:36:39.895Z,99848.81
2023-04-05T07:39:06.502Z,99849.03
2023-04-05T07:41:35.255Z,99840.41
2023-04-05T07:44:01.731Z,99844.44
2023-04-05T07:46:28.295Z,99847.00
2023-04-05T07:48:54.741Z,99838.81
2023-04-05T07:51:21.174Z,99840.38
2023-04-05T07:53:48.083Z,99838.19
2023-04-05T07:56:15.213Z,99847.38
2023-04-05T07:58:42.085Z,99841.47
2023-04-05T08:01:10.528Z,99841.25
2023-04-05T08:03:39.733Z,99840.91
2023-04-05T08:06:13.451Z,99836.50
2023-04-05T08:08:40.873Z,99832.78
2023-04-05T08:11:07.328Z,99842.28
2023-04-05T08:13:38.601Z,99829.13
2023-04-05T08:16:05.323Z,99834.53
2023-04-05T08:18:31.826Z,99835.84
2023-04-05T08:20:58.330Z,99825.34
2023-04-05T08:23:25.039Z,99829.66
2023-04-05T08:25:51.510Z,99824.28
2023-04-05T08:28:17.984Z,99825.53
2023-04-05T08:30:45.931Z,99822.09
2023-04-05T08:33:12.520Z,99816.41
2023-04-05T08:35:39.807Z,99815.69
2023-04-05T08:38:09.379Z,99811.22
2023-04-05T08:40:42.982Z,99809.94
2023-04-05T08:43:39.061Z,99809.38
2023-04-05T08:46:08.534Z,99815.13
2023-04-05T08:48:36.633Z,99808.28
2023-04-05T08:51:03.714Z,99812.13
2023-04-05T08:53:30.591Z,99818.31
2023-04-05T08:55:57.310Z,99807.59
2023-04-05T08:58:25.438Z,99807.72
2023-04-05T09:00:52.190Z,99805.34
2023-04-05T09:03:22.131Z,99809.25
2023-04-05T09:05:51.304Z,99808.88
2023-04-05T09:08:18.254Z,99807.69
2023-04-05T09:10:45.249Z,99804.13
2023-04-05T09:13:11.662Z,99807.50
2023-04-05T09:15:38.884Z,99807.69
2023-04-05T09:18:12.314Z,99809.97
2023-04-05T09:20:45.930Z,99809.69
2023-04-05T09:23:12.362Z,99806.09
2023-04-05T09:25:39.931Z,99802.28
2023-04-05T09:28:07.127Z,99807.03
2023-04-05T09:30:34.552Z,99804.31
2023-04-05T09:33:01.133Z,99806.41
2023-04-05T09:35:29.843Z,99807.56
2023-04-05T09:38:04.410Z,99803.16
2023-04-05T09:40:44.592Z,99800.94
2023-04-05T09:43:12.296Z,99799.75
2023-04-05T09:45:42.978Z,99804.97
2023-04-05T09:48:09.962Z,99799.66
2023-04-05T09:50:36.788Z,99797.25
2023-04-05T09:53:15.932Z,99795.75
2023-04-05T09:55:43.691Z,99800.31
2023-04-05T09:58:14.049Z,99805.69
2023-04-05T10:00:55.624Z,99787.38
2023-04-05T10:03:27.374Z,99794.91
2023-04-05T10:05:56.862Z,99787.84
2023-04-05T10:08:23.666Z,99783.56
2023-04-05T10:10:50.579Z,99778.91
2023-04-05T10:13:19.204Z,99781.28
2023-04-05T10:15:47.316Z,99784.56
2023-04-05T10:18:26.412Z,99784.44
2023-04-05T10:20:54.265Z,99776.91
2023-04-05T10:23:33.397Z,99779.25
2023-04-05T10:26:05.719Z,99776.06
2023-04-05T10:28:37.469Z,99776.72
2023-04-05T10:31:13.294Z,99761.16
2023-04-05T10:33:46.044Z,99774.44
2023-04-05T10:36:43.415Z,99772.88
2023-04-05T10:39:16.361Z,99764.88
2023-04-05T10:41:47.852Z,99764.13
2023-04-05T10:44:25.664Z,99757.72
2023-04-05T10:46:54.758Z,99755.06
2023-04-05T10:49:54.206Z,99756.03
2023-04-05T10:52:22.145Z,99754.56
2023-04-05T10:54:49.283Z,99752.06
2023-04-05T10:57:16.093Z,99754.09
2023-04-05T10:59:44.394Z,99755.19
2023-04-05T11:02:11.337Z,99746.41
2023-04-05T11:04:41.614Z,99756.53
2023-04-05T11:07:19.186Z,99747.03
2023-04-05T11:10:18.477Z,99743.81
2023-04-05T11:12:56.029Z,99730.97
2023-04-05T11:15:25.542Z,99738.66
2023-04-05T11:18:11.915Z,99736.03
2023-04-05T11:21:05.496Z,99739.25
2023-04-05T11:23:32.064Z,99741.09
2023-04-05T11:26:05.867Z,99737.50
2023-04-05T11:28:40.995Z,99740.41
2023-04-05T11:31:27.014Z,99738.31
2023-04-05T11:33:56.898Z,99735.66
2023-04-05T11:36:32.217Z,99723.66
2023-04-05T11:39:23.867Z,99721.59
2023-04-05T11:41:54.655Z,99721.47
2023-04-05T11:44:21.848Z,99715.81
2023-04-05T11:46:48.655Z,99711.69
2023-04-05T11:49:15.777Z,99710.00
2023-04-05T11:51:42.794Z,99706.16
2023-04-05T11:54:09.913Z,99708.31
2023-04-05T11:56:37.602Z,99708.81
2023-04-05T11:59:04.085Z,99705.59
2023-04-05T12:01:30.532Z,99700.06
2023-04-05T12:03:57.550Z,99696.06
2023-04-05T12:06:25.405Z,99698.31
2023-04-05T12:08:53.243Z,99697.03
2023-04-05T12:11:31.084Z,99687.13
2023-04-05T12:13:59.237Z,99682.66
2023-04-05T12:16:25.985Z,99674.19
2023-04-05T12:18:55.521Z,99669.53
2023-04-05T12:21:22.571Z,99670.91
2023-04-05T12:23:49.929Z,99663.50
2023-04-05T12:26:16.531Z,99658.59
2023-04-05T12:29:00.149Z,99666.41
2023-04-05T12:31:35.899Z,99669.13
2023-04-05T12:34:02.449Z,99669.78
2023-04-05T12:36:28.915Z,99659.47
2023-04-05T12:38:55.441Z,99656.50
2023-04-05T12:41:31.947Z,99654.84
2023-04-05T12:44:01.727Z,99647.13
2023-04-05T12:46:41.042Z,99646.25
2023-04-05T12:49:10.811Z,99641.53
2023-04-05T12:51:42.082Z,99646.97
2023-04-05T12:54:08.553Z,99644.13
2023-04-05T12:56:35.041Z,99634.19
2023-04-05T12:59:01.554Z,99631.59
2023-04-05T13:01:28.153Z,99634.91
2023-04-05T13:04:01.552Z,99630.06
2023-04-05T13:06:35.413Z,99627.00
2023-04-05T13:09:01.815Z,99617.44
2023-04-05T13:11:29.357Z,99624.59
2023-04-05T13:13:55.832Z,99618.63
2023-04-05T13:16:22.416Z,99621.63
2023-04-05T13:18:48.854Z,99616.31
2023-04-05T13:21:15.398Z,99610.94
2023-04-05T13:23:41.812Z,99616.06
2023-04-05T13:26:08.444Z,99602.34
2023-04-05T13:28:35.311Z,99605.59
2023-04-05T13:31:03.676Z,99601.44
2023-04-05T13:33:30.135Z,99604.13
2023-04-05T13:35:57.057Z,99593.88
2023-04-05T13:38:23.459Z,99600.19
2023-04-05T13:40:49.850Z,99592.06
2023-04-05T13:43:16.346Z,99597.78
2023-04-05T13:45:43.022Z,99592.56
2023-04-05T13:48:09.681Z,99587.34
2023-04-05T13:50:36.489Z,99586.78
2023-04-05T13:53:03.001Z,99583.53
2023-04-05T13:55:29.433Z,99573.72
2023-04-05T13:57:56.012Z,99580.84
2023-04-05T14:00:22.795Z,99573.38
2023-04-05T14:02:51.557Z,99573.88
2023-04-05T14:05:18.579Z,99567.53
2023-04-05T14:07:45.457Z,99573.75
2023-04-05T14:10:12.144Z,99567.47
2023-04-05T14:12:39.320Z,99577.72
2023-04-05T14:15:06.419Z,99574.06
2023-04-05T14:17:32.910Z,99568.19
2023-04-05T14:19:59.398Z,99563.88
2023-04-05T14:22:25.851Z,99563.09
2023-04-05T14:24:52.334Z,99563.75
2023-04-05T14:27:22.130Z,99550.53
2023-04-05T14:29:48.664Z,99551.75
2023-04-05T14:32:15.766Z,99552.16
2023-04-05T14:34:42.266Z,99536.91
2023-04-05T14:37:08.839Z,99540.44
2023-04-05T14:39:35.414Z,99542.94
2023-04-05T14:42:02.049Z,99537.00
2023-04-05T14:44:28.541Z,99540.13
2023-04-05T14:46:55.405Z,99543.41
2023-04-05T14:49:21.979Z,99535.16
2023-04-05T14:51:48.512Z,99535.78
2023-04-05T14:54:15.056Z,99528.25
2023-04-05T14:56:41.867Z,99522.84
2023-04-05T14:59:08.322Z,99524.44
2023-04-05T15:01:34.848Z,99523.34
2023-04-05T15:04:01.425Z,99520.88
2023-04-05T15:06:28.600Z,99514.31
2023-04-05T15:08:55.082Z,99508.47
2023-04-05T15:11:21.667Z,99507.31
2023-04-05T15:13:48.121Z,99512.09
2023-04-05T15:16:14.597Z,99510.28
2023-04-05T15:18:41.115Z,99509.78
2023-04-05T15:21:07.650Z,99510.50
2023-04-05T15:23:34.245Z,99498.47
2023-04-05T15:26:00.872Z,99492.03
2023-04-05T15:28:27.347Z,99498.69
2023-04-05T15:30:53.888Z,99497.34
2023-04-05T15:33:20.823Z,99490.03
2023-04-05T15:35:47.266Z,99492.78
2023-04-05T15:38:13.721Z,99479.44
2023-04-05T15:40:40.298Z,99480.09
2023-04-05T15:43:06.775Z,99483.59
2023-04-05T15:45:33.202Z,99487.81
2023-04-05T15:47:59.710Z,99484.13
2023-04-05T15:50:26.258Z,99475.13
2023-04-05T15:52:52.727Z,99476.34
2023-04-05T15:55:19.370Z,99479.66
2023-04-05T15:57:45.978Z,99483.38
2023-04-05T16:00:13.126Z,99479.59
2023-04-05T16:02:39.776Z,99472.66
2023-04-05T16:05:06.487Z,99474.19
2023-04-05T16:07:33.001Z,99474.84
2023-04-05T16:09:59.495Z,99482.41
2023-04-05T16:12:26.334Z,99472.78
2023-04-05T16:14:52.766Z,99470.66
2023-04-05T16:17:19.252Z,99468.34
2023-04-05T16:19:45.720Z,99471.84
2023-04-05T16:22:12.233Z,99481.56
2023-04-05T16:24:39.292Z,99467.53
2023-04-05T16:27:06.144Z,99467.91
2023-04-05T16:29:33.074Z,99469.91
2023-04-05T16:31:59.570Z,99468.84
2023-04-05T16:34:26.387Z,99472.69
2023-04-05T16:36:52.880Z,99474.69
2023-04-05T16:39:19.379Z,99472.03
2023-04-05T16:41:45.853Z,99476.53
2023-04-05T16:44:12.359Z,99467.13
2023-04-05T16:46:39.765Z,99475.69
2023-04-05T16:49:08.671Z,99474.22
2023-04-05T16:51:36.264Z,99474.13
2023-04-05T16:54:02.769Z,99470.81
2023-04-05T16:56:29.214Z,99470.22
2023-04-05T16:58:57.340Z,99470.13
2023-04-05T17:01:23.935Z,99469.31
2023-04-05T17:03:50.439Z,99478.59
2023-04-05T17:06:16.966Z,99474.66
2023-04-05T17:08:43.505Z,99477.16
2023-04-05T17:11:10.146Z,99478.66
2023-04-05T17:13:36.968Z,99479.19
2023-04-05T17:16:03.627Z,99479.84
2023-04-05T17:18:30.227Z,99475.31
2023-04-05T17:20:56.695Z,99473.84
2023-04-05T17:23:24.159Z,99475.19
2023-04-05T17:25:50.647Z,99480.50
2023-04-05T17:28:17.089Z,99481.00
2023-04-05T17:30:43.594Z,99490.97
2023-04-05T17:33:10.065Z,99486.22
2023-04-05T17:35:36.673Z,99478.88
2023-04-05T17:38:03.495Z,99478.16
2023-04-05T17:40:31.004Z,99477.63
2023-04-05T17:42:57.460Z,99478.34
2023-04-05T17:45:23.902Z,99482.13
2023-04-05T17:47:50.372Z,99472.69
2023-04-05T17:50:16.927Z,99482.91
2023-04-05T17:52:43.463Z,99484.47
2023-04-05T17:55:10.303Z,99482.41
2023-04-05T17:57:36.835Z,99493.41
2023-04-05T18:00:04.050Z,99488.84
2023-04-05T18:02:30.732Z,99486.75
2023-04-05T18:04:57.179Z,99486.22
2023-04-05T18:07:23.687Z,99489.38
2023-04-05T18:09:50.151Z,99490.53
2023-04-05T18:12:16.600Z,99493.72
2023-04-05T18:14:43.139Z,99491.03
2023-04-05T18:17:09.577Z,99495.56
2023-04-05T18:19:36.116Z,99497.13
2023-04-05T18:22:02.677Z,99502.78
2023-04-05T18:24:29.562Z,99502.34
2023-04-05T18:26:56.178Z,99507.50
2023-04-05T18:29:28.041Z,99507.72
2023-04-05T18:31:55.637Z,99510.97
2023-04-05T18:34:22.202Z,99510.94
2023-04-05T18:36:48.668Z,99520.06
2023-04-05T18:39:16.471Z,99522.38
2023-04-05T18:41:42.949Z,99518.31
2023-04-05T18:44:09.477Z,99521.88
2023-04-05T18:46:35.879Z,99526.66
2023-04-05T18:49:02.305Z,99518.53
2023-04-05T18:51:28.785Z,99527.50
2023-04-05T18:53:55.248Z,99529.59
2023-04-05T18:56:21.858Z,99532.16
2023-04-05T18:58:49.906Z,99538.00
2023-04-05T19:01:18.569Z,99532.59
2023-04-05T19:03:45.838Z,99534.56
2023-04-05T19:06:12.759Z,99540.66
2023-04-05T19:08:39.661Z,99545.16
2023-04-05T19:11:06.803Z,99544.91
2023-04-05T19:13:33.381Z,99543.22
2023-04-05T19:15:59.923Z,99545.91
2023-04-05T19:18:27.747Z,99552.31
2023-04-05T19:20:55.902Z,99547.88
2023-04-05T19:23:22.819Z,99546.91
2023-04-05T19:25:49.273Z,99542.19
2023-04-05T19:28:16.216Z,99550.25
2023-04-05T19:30:43.348Z,99551.63
2023-04-05T19:33:10.378Z,99544.56
2023-04-05T19:35:37.135Z,99552.22
2023-04-05T19:38:04.672Z,99550.25
2023-04-05T19:40:31.693Z,99552.03
2023-04-05T19:42:59.623Z,99551.66
2023-04-05T19:45:27.979Z,99548.34
2023-04-05T19:47:55.521Z,99547.00
2023-04-05T19:50:37.340Z,99551.25
2023-04-05T19:53:07.317Z,99546.16
2023-04-05T19:55:35.612Z,99547.09
2023-04-05T19:58:06.644Z,99546.31
2023-04-05T20:00:48.434Z,99548.16
2023-04-05T20:03:31.339Z,99548.13
2023-04-05T20:06:14.687Z,99550.19
2023-04-05T20:08:45.672Z,99554.91
2023-04-05T20:11:21.815Z,99549.28
2023-04-05T20:13:50.615Z,99545.31
2023-04-05T20:16:18.094Z,99553.25
2023-04-05T20:18:46.313Z,99555.59
2023-04-05T20:21:13.434Z,99553.63
2023-04-05T20:23:41.347Z,99554.19
2023-04-05T20:26:08.377Z,99554.06
2023-04-05T20:28:38.248Z,99555.75
2023-04-05T20:31:07.706Z,99553.72
2023-04-05T20:33:49.454Z,99557.03
2023-04-05T20:36:18.948Z,99556.88
2023-04-05T20:38:46.444Z,99565.94
2023-04-05T20:41:14.124Z,99560.41
2023-04-05T20:43:42.176Z,99557.84
2023-04-05T20:46:09.201Z,99554.84
2023-04-05T20:48:36.832Z,99559.72
2023-04-05T20:51:06.491Z,99556.50
2023-04-05T20:53:34.016Z,99555.03
2023-04-05T20:56:00.689Z,99555.53
2023-04-05T20:58:27.799Z,99554.53
2023-04-05T21:00:54.855Z,99561.13
2023-04-05T21:03:21.870Z,99547.53
2023-04-05T21:05:48.516Z,99552.72
2023-04-05T21:08:15.932Z,99551.38
2023-04-05T21:10:42.645Z,99555.47
2023-04-05T21:13:09.053Z,99549.22
2023-04-05T21:15:35.725Z,99556.19
2023-04-05T21:18:02.967Z,99562.78
2023-04-05T21:20:29.563Z,99553.03
2023-04-05T21:22:57.261Z,99565.75
2023-04-05T21:25:23.859Z,99569.13
2023-04-05T21:27:50.823Z,99567.09
2023-04-05T21:30:18.070Z,99556.41
2023-04-05T21:32:44.781Z,99560.63
2023-04-05T21:35:11.338Z,99558.59
2023-04-05T21:37:37.784Z,99560.22
2023-04-05T21:40:04.570Z,99561.00
2023-04-05T21:42:31.706Z,99561.94
2023-04-05T21:44:58.150Z,99565.09
2023-04-05T21:47:24.784Z,99568.97
2023-04-05T21:49:52.715Z,99560.16
2023-04-05T21:52:19.257Z,99563.97
2023-04-05T21:54:46.164Z,99572.72
2023-04-05T21:57:12.630Z,99567.84
2023-04-05T21:59:39.113Z,99564.03
2023-04-05T22:02:06.883Z,99571.75
2023-04-05T22:04:33.884Z,99562.75
2023-04-05T22:07:00.317Z,99568.25
2023-04-05T22:09:28.168Z,99569.19
2023-04-05T22:11:55.042Z,99567.16
2023-04-05T22:14:21.718Z,99571.81
2023-04-05T22:16:48.349Z,99576.13
2023-04-05T22:19:14.916Z,99581.09
2023-04-05T22:21:41.347Z,99578.91
2023-04-05T22:24:08.712Z,99571.38
2023-04-05T22:26:35.609Z,99572.50
2023-04-05T22:29:02.497Z,99580.81
2023-04-05T22:31:28.944Z,99582.84
2023-04-05T22:33:55.633Z,99574.09
2023-04-05T22:36:22.271Z,99571.38
2023-04-05T22:38:48.772Z,99573.75
2023-04-05T22:41:15.206Z,99572.25
2023-04-05T22:43:41.717Z,99578.38
2023-04-05T22:46:08.257Z,99577.53
2023-04-05T22:48:34.769Z,99572.34
2023-04-05T22:51:01.252Z,99574.25
2023-04-05T22:53:28.389Z,99573.13
2023-04-05T22:55:54.835Z,99572.88
2023-04-05T22:58:22.446Z,99576.13
2023-04-05T23:00:48.919Z,99575.16
2023-04-05T23:03:15.410Z,99576.69
2023-04-05T23:05:41.840Z,99564.53
2023-04-05T23:08:08.326Z,99569.97
2023-04-05T23:10:34.761Z,99563.63
2023-04-05T23:13:01.631Z,99573.13
2023-04-05T23:15:28.083Z,99569.72
2023-04-05T23:17:54.581Z,99572.63
2023-04-05T23:20:21.099Z,99574.94
2023-04-05T23:22:48.052Z,99565.25
2023-04-05T23:25:14.539Z,99569.06
2023-04-05T23:27:41.096Z,99559.97
2023-04-05T23:30:08.119Z,99566.53
2023-04-05T23:32:34.614Z,99563.00
2023-04-05T23:35:01.127Z,99566.78
2023-04-05T23:37:27.555Z,99564.91
2023-04-05T23:39:54.077Z,99570.97
2023-04-05T23:42:20.698Z,99571.59
2023-04-05T23:44:47.242Z,99566.53
2023-04-05T23:47:13.667Z,99554.91
2023-04-05T23:49:40.093Z,99560.72
2023-04-05T23:52:06.651Z,99562.22
2023-04-05T23:54:33.115Z,99556.91
2023-04-05T23:56:59.564Z,99551.47
2023-04-05T23:59:26.206Z,99554.00
